Time;durP1;ratioP1;P1;durP2;ratioP2;P2;SDS_P1;SDS_P2;PMS_P1;PMS_P2;Temp;Humidity;BMP_temperature;BMP_pressure;BME280_temperature;BME280_humidity;BME280_pressure;Samples;Min_cycle;Max_cycle;Signal;HPM_P1;HPM_P2
2023/04/27 00:02:15;;;;;;;12.53;4.93;;;;;;;6.36;56.47;100348.44;5007487;28;20204;-67
2023/04/27 00:04:43;;;;;;;7.60;5.10;;;;;;;6.33;56.35;100339.00;5006108;28;20218;-67
2023/04/27 00:07:11;;;;;;;10.13;5.00;;;;;;;6.33;56.54;100349.25;5008221;28;20203;-66
2023/04/27 00:09:39;;;;;;;9.13;4.87;;;;;;;6.28;57.05;100344.09;5006078;28;20725;-67
2023/04/27 00:12:07;;;;;;;12.40;5.57;;;;;;;6.31;56.91;100344.97;5007817;28;20298;-67
2023/04/27 00:14:35;;;;;;;9.77;5.97;;;;;;;6.28;57.26;100345.78;5006653;28;20203;-67
2023/04/27 00:17:03;;;;;;;10.00;5.00;;;;;;;6.29;57.05;100350.91;5012580;28;20234;-67
2023/04/27 00:19:33;;;;;;;8.47;4.90;;;;;;;6.27;56.75;100349.19;5007523;28;20653;-67
2023/04/27 00:22:01;;;;;;;9.70;4.43;;;;;;;6.27;57.08;100349.19;5011337;28;20215;-68
2023/04/27 00:24:29;;;;;;;10.90;5.90;;;;;;;6.24;57.27;100339.78;5008888;28;20243;-68
2023/04/27 00:26:57;;;;;;;10.43;5.53;;;;;;;6.24;57.38;100339.78;5011905;28;20249;-70
2023/04/27 00:29:26;;;;;;;10.00;5.07;;;;;;;6.24;57.27;100346.59;5007750;28;20553;-67
2023/04/27 00:31:54;;;;;;;8.40;4.77;;;;;;;6.24;57.66;100350.03;5011429;28;20799;-67
2023/04/27 00:34:22;;;;;;;10.43;5.10;;;;;;;6.25;57.10;100351.72;5006702;28;20646;-67
2023/04/27 00:36:51;;;;;;;7.20;4.90;;;;;;;6.22;57.61;100355.94;5010515;28;20604;-67
2023/04/27 00:39:19;;;;;;;7.87;4.80;;;;;;;6.21;57.45;100354.25;5008647;28;20845;-69
2023/04/27 00:41:47;;;;;;;10.60;4.67;;;;;;;6.19;57.49;100350.81;5007089;28;20211;-68
2023/04/27 00:44:22;;;;;;;12.53;4.97;;;;;;;6.16;57.48;100359.31;5011288;28;20208;-67
2023/04/27 00:46:51;;;;;;;7.07;4.40;;;;;;;6.12;57.77;100359.28;5010765;28;20280;-68
2023/04/27 00:49:19;;;;;;;8.63;4.60;;;;;;;6.12;57.56;100356.72;5011750;28;20203;-67
2023/04/27 00:51:47;;;;;;;10.33;5.80;;;;;;;6.10;58.09;100361.78;5009893;28;20250;-67
2023/04/27 00:54:20;;;;;;;11.90;5.47;;;;;;;6.09;57.82;100367.75;5010352;28;20655;-68
2023/04/27 00:56:48;;;;;;;8.87;4.90;;;;;;;6.07;57.94;100356.63;5008793;28;20227;-60
2023/04/27 00:59:16;;;;;;;9.37;5.10;;;;;;;6.09;58.07;100369.47;5013002;28;20238;-65
2023/04/27 01:01:44;;;;;;;12.80;5.80;;;;;;;6.08;57.24;100368.63;5012224;28;20250;-62
2023/04/27 01:04:13;;;;;;;8.07;4.93;;;;;;;6.08;57.75;100370.31;5010945;28;20304;-60
2023/04/27 01:06:41;;;;;;;10.00;4.93;;;;;;;6.07;57.79;100371.13;5006982;28;20211;-61
2023/04/27 01:09:09;;;;;;;10.23;5.07;;;;;;;6.03;58.02;100370.25;5009374;28;20238;-61
2023/04/27 01:11:39;;;;;;;11.10;5.13;;;;;;;6.00;58.32;100372.75;5003946;28;20211;-62
2023/04/27 01:14:07;;;;;;;9.13;5.67;;;;;;;5.98;58.33;100371.88;5009937;28;20253;-63
2023/04/27 01:16:36;;;;;;;8.87;5.37;;;;;;;5.98;58.21;100379.56;5011496;28;20203;-62
2023/04/27 01:19:04;;;;;;;8.90;5.33;;;;;;;5.97;58.15;100375.28;5009256;28;20289;-61
2023/04/27 01:21:32;;;;;;;8.73;5.47;;;;;;;5.92;58.13;100375.22;5003154;28;20619;-61
2023/04/27 01:24:01;;;;;;;10.80;5.47;;;;;;;5.89;58.90;100380.28;5007733;28;20819;-62
2023/04/27 01:26:29;;;;;;;11.03;5.43;;;;;;;5.84;58.61;100376.78;5009846;28;20579;-62
2023/04/27 01:28:58;;;;;;;11.67;6.27;;;;;;;5.77;58.59;100378.41;5003022;28;20211;-60
2023/04/27 01:31:26;;;;;;;11.77;6.10;;;;;;;5.69;58.91;100380.00;5010787;28;20203;-61
2023/04/27 01:33:54;;;;;;;9.53;5.67;;;;;;;5.64;58.91;100385.91;5007785;28;20234;-62
2023/04/27 01:36:22;;;;;;;13.57;6.07;;;;;;;5.62;59.95;100385.88;5010910;28;20218;-66
2023/04/27 01:38:50;;;;;;;11.10;6.37;;;;;;;5.62;59.40;100382.47;5007189;28;20757;-65
2023/04/27 01:41:19;;;;;;;9.27;5.70;;;;;;;5.56;59.63;100386.66;5010107;28;20203;-61
2023/04/27 01:43:47;;;;;;;11.63;5.97;;;;;;;5.55;59.84;100381.50;5010431;28;20207;-63
2023/04/27 01:46:15;;;;;;;14.57;6.47;;;;;;;5.55;59.39;100386.63;5006940;28;20199;-62
2023/04/27 01:48:43;;;;;;;12.10;5.70;;;;;;;5.55;60.03;100382.34;5010238;28;20602;-61
2023/04/27 01:51:11;;;;;;;8.50;5.93;;;;;;;5.59;59.83;100385.81;5007684;28;20654;-61
2023/04/27 01:53:42;;;;;;;10.20;5.07;;;;;;;5.54;59.16;100385.75;5009610;28;20265;-63
2023/04/27 01:56:10;;;;;;;8.93;5.43;;;;;;;5.52;59.76;100394.25;5009120;28;20709;-63
2023/04/27 01:58:39;;;;;;;9.10;5.53;;;;;;;5.50;59.48;100393.38;5008888;28;20682;-63
2023/04/27 02:01:07;;;;;;;9.77;5.43;;;;;;;5.46;59.74;100386.50;5008453;28;20217;-61
2023/04/27 02:03:35;;;;;;;8.70;5.83;;;;;;;5.48;60.23;100392.47;5012567;28;20215;-63
2023/04/27 02:06:03;;;;;;;9.50;5.50;;;;;;;5.48;59.64;100384.81;5009090;28;20203;-61
2023/04/27 02:08:31;;;;;;;10.93;5.73;;;;;;;5.50;59.99;100394.22;5009475;28;20211;-62
2023/04/27 02:10:59;;;;;;;10.30;5.90;;;;;;;5.49;59.71;100395.06;5007158;28;20203;-62
2023/04/27 02:13:27;;;;;;;12.30;5.60;;;;;;;5.51;59.83;100389.97;5011082;28;20207;-62
2023/04/27 02:15:56;;;;;;;10.40;5.90;;;;;;;5.52;59.72;100401.91;5004867;28;20230;-62
2023/04/27 02:18:24;;;;;;;10.43;5.63;;;;;;;5.47;59.90;100391.63;5003302;28;20215;-64
2023/04/27 02:20:52;;;;;;;13.33;6.43;;;;;;;5.42;59.68;100389.84;5007207;28;20266;-64
2023/04/27 02:23:20;;;;;;;10.63;6.00;;;;;;;5.46;60.21;100392.47;5009463;28;20285;-62
2023/04/27 02:25:47;;;;;;;15.20;6.60;;;;;;;5.49;59.78;100395.06;5004537;28;20231;-62
2023/04/27 02:28:15;;;;;;;9.73;6.70;;;;;;;5.49;59.62;100386.56;5009749;28;20565;-64
2023/04/27 02:30:44;;;;;;;10.87;7.03;;;;;;;5.46;59.60;100383.94;5007349;28;20207;-62
2023/04/27 02:33:13;;;;;;;9.40;6.90;;;;;;;5.41;59.41;100390.66;5007476;28;20231;-60
2023/04/27 02:35:41;;;;;;;13.77;6.53;;;;;;;5.37;59.73;100381.25;5003226;28;20265;-61
2023/04/27 02:38:10;;;;;;;16.30;7.70;;;;;;;5.32;59.75;100386.28;5008611;28;20670;-63
2023/04/27 02:40:38;;;;;;;11.50;7.00;;;;;;;5.22;59.96;100395.50;5008305;28;20214;-62
2023/04/27 02:43:05;;;;;;;9.40;6.50;;;;;;;5.11;60.02;100388.50;5011085;28;20203;-62
2023/04/27 02:45:37;;;;;;;13.53;6.93;;;;;;;5.01;60.86;100393.47;5003970;28;20578;-62
2023/04/27 02:48:05;;;;;;;10.47;6.77;;;;;;;5.01;61.45;100392.63;5010792;28;20199;-62
2023/04/27 02:50:34;;;;;;;13.50;7.53;;;;;;;5.03;61.45;100396.03;5004805;28;20693;-61
2023/04/27 02:53:02;;;;;;;13.33;7.33;;;;;;;5.08;60.82;100399.53;5009278;28;20211;-63
2023/04/27 02:55:30;;;;;;;14.87;7.73;;;;;;;5.09;60.79;100406.38;5008457;28;20199;-61
2023/04/27 02:57:58;;;;;;;14.33;6.93;;;;;;;5.14;60.71;100399.63;5009154;28;20302;-62
2023/04/27 03:00:26;;;;;;;10.33;7.57;;;;;;;5.07;60.80;100402.91;5007212;28;20211;-64
2023/04/27 03:02:54;;;;;;;15.80;7.53;;;;;;;5.03;60.73;100411.38;5010110;28;20207;-62
2023/04/27 03:05:25;;;;;;;16.87;7.93;;;;;;;4.99;61.39;100409.59;5008617;28;20203;-62
2023/04/27 03:07:54;;;;;;;14.60;7.93;;;;;;;4.94;61.15;100409.53;5004424;28;20546;-61
2023/04/27 03:10:22;;;;;;;12.40;7.40;;;;;;;4.91;61.46;100412.03;5009177;28;20234;-64
2023/04/27 03:12:50;;;;;;;18.10;8.20;;;;;;;4.87;61.52;100414.50;5001493;28;20286;-62
2023/04/27 03:15:18;;;;;;;16.03;7.13;;;;;;;4.81;61.76;100413.53;5006721;28;20207;-62
2023/04/27 03:17:46;;;;;;;13.67;7.57;;;;;;;4.74;61.75;100406.59;5008525;28;20253;-61
2023/04/27 03:20:15;;;;;;;9.87;7.20;;;;;;;4.66;62.46;100413.28;5008409;28;20662;-65
2023/04/27 03:22:44;;;;;;;15.97;7.23;;;;;;;4.62;62.70;100415.75;5006392;28;20207;-61
2023/04/27 03:25:14;;;;;;;17.70;9.13;;;;;;;4.62;62.77;100408.09;5004842;28;20246;-61
2023/04/27 03:27:42;;;;;;;13.07;8.90;;;;;;;4.66;62.38;100415.81;5005472;28;20243;-61
2023/04/27 03:30:11;;;;;;;18.43;11.30;;;;;;;4.70;62.51;100417.59;5010014;28;20204;-61
2023/04/27 03:32:39;;;;;;;18.50;13.70;;;;;;;4.73;62.75;100411.69;5002705;28;20203;-61
2023/04/27 03:35:08;;;;;;;18.77;13.10;;;;;;;4.77;62.31;100405.81;5003396;28;20203;-62
2023/04/27 03:37:36;;;;;;;18.37;12.27;;;;;;;4.78;61.90;100410.06;5006770;28;20214;-62
2023/04/27 03:40:06;;;;;;;17.00;9.23;;;;;;;4.80;62.11;100409.28;5011293;28;20627;-63
2023/04/27 03:42:35;;;;;;;14.70;8.60;;;;;;;4.80;61.59;100408.41;5005972;28;20204;-62
2023/04/27 03:45:04;;;;;;;12.67;8.37;;;;;;;4.77;61.66;100411.78;5015380;28;20246;-65
2023/04/27 03:47:32;;;;;;;15.80;8.60;;;;;;;4.73;62.23;100416.81;5007430;28;20207;-63
2023/04/27 03:50:00;;;;;;;14.70;7.30;;;;;;;4.73;62.81;100412.56;5011724;28;20927;-63
2023/04/27 03:52:28;;;;;;;18.47;8.73;;;;;;;4.79;62.12;100422.03;5007549;28;20258;-61
2023/04/27 03:54:56;;;;;;;16.73;7.53;;;;;;;4.82;62.29;100417.84;5014006;28;20208;-61
2023/04/27 03:57:24;;;;;;;11.00;6.77;;;;;;;4.86;62.36;100428.97;5005722;28;20210;-63
2023/04/27 03:59:53;;;;;;;12.40;7.40;;;;;;;4.93;62.32;100435.88;5012537;28;20286;-62
2023/04/27 04:02:22;;;;;;;12.57;7.33;;;;;;;4.96;61.64;100435.06;5009921;28;20199;-62
2023/04/27 04:04:50;;;;;;;13.10;7.80;;;;;;;4.98;61.86;100438.53;5013397;28;20203;-60
2023/04/27 04:07:18;;;;;;;17.70;7.40;;;;;;;5.03;62.33;100449.66;5008256;28;20211;-63
2023/04/27 04:09:46;;;;;;;23.40;8.17;;;;;;;5.09;61.88;100449.78;5009234;28;20207;-63
2023/04/27 04:12:14;;;;;;;15.03;7.70;;;;;;;5.12;61.23;100457.50;5005214;28;20203;-62
2023/04/27 04:14:47;;;;;;;13.13;7.33;;;;;;;5.13;61.51;100454.09;5009193;28;20653;-62
2023/04/27 04:17:17;;;;;;;16.40;8.20;;;;;;;5.19;61.66;100459.34;5003561;28;20227;-63
2023/04/27 04:19:46;;;;;;;12.60;7.57;;;;;;;5.27;60.89;100462.88;5004748;28;20227;-62
2023/04/27 04:22:14;;;;;;;12.03;7.03;;;;;;;5.33;60.37;100446.75;5005600;28;20647;-64
2023/04/27 04:24:42;;;;;;;12.10;7.13;;;;;;;5.33;60.45;100460.41;5011432;28;20439;-62
2023/04/27 04:27:10;;;;;;;14.57;7.17;;;;;;;5.42;60.54;100452.03;5011154;28;20195;-63
2023/04/27 04:29:39;;;;;;;12.40;6.73;;;;;;;5.51;60.39;100457.28;5008603;28;20204;-61
2023/04/27 04:32:08;;;;;;;16.53;7.53;;;;;;;5.66;59.90;100451.53;5010091;28;20207;-62
2023/04/27 04:34:37;;;;;;;9.37;6.40;;;;;;;5.78;59.53;100456.84;5008058;28;20207;-61
2023/04/27 04:37:05;;;;;;;13.53;7.73;;;;;;;5.81;59.19;100456.00;5010148;28;20219;-62
2023/04/27 04:39:33;;;;;;;14.30;7.03;;;;;;;5.88;59.22;100457.81;5011041;28;20215;-65
2023/04/27 04:42:02;;;;;;;10.47;6.97;;;;;;;5.94;58.91;100457.94;5008408;28;20203;-61
2023/04/27 04:44:31;;;;;;;15.67;6.97;;;;;;;6.02;58.55;100463.16;5010485;28;20214;-60
2023/04/27 04:46:59;;;;;;;14.37;6.87;;;;;;;6.05;58.17;100458.94;5011859;28;20645;-63
2023/04/27 04:49:27;;;;;;;11.37;7.07;;;;;;;6.12;58.30;100452.22;5008335;28;20213;-63
2023/04/27 04:51:56;;;;;;;11.10;6.20;;;;;;;6.31;57.82;100455.00;5002149;28;20562;-61
2023/04/27 04:54:24;;;;;;;11.03;6.93;;;;;;;6.50;57.69;100450.13;5009949;28;20677;-62
2023/04/27 04:56:52;;;;;;;13.83;7.03;;;;;;;6.73;57.31;100458.03;5005553;28;20354;-61
2023/04/27 04:59:19;;;;;;;16.03;7.40;;;;;;;6.93;56.14;100465.09;5009834;28;20708;-64
2023/04/27 05:01:47;;;;;;;12.47;6.57;;;;;;;7.06;55.03;100464.34;5004255;28;20246;-65
2023/04/27 05:04:17;;;;;;;10.13;6.43;;;;;;;7.20;55.26;100460.22;5007017;28;20620;-61
2023/04/27 05:06:45;;;;;;;13.33;6.50;;;;;;;7.43;54.88;100457.00;5009986;28;20211;-62
2023/04/27 05:09:15;;;;;;;14.13;6.47;;;;;;;7.72;54.41;100470.88;5006799;28;22244;-61
2023/04/27 05:11:42;;;;;;;13.33;6.40;;;;;;;8.05;54.08;100466.81;4999649;28;20643;-62
2023/04/27 05:14:11;;;;;;;12.17;7.30;;;;;;;8.34;52.11;100464.38;5008868;28;20659;-62
2023/04/27 05:16:38;;;;;;;13.60;6.03;;;;;;;8.48;50.50;100469.63;5000785;28;20242;-61
2023/04/27 05:19:07;;;;;;;12.97;6.63;;;;;;;8.62;50.71;100469.69;5003112;28;20282;-61
2023/04/27 05:21:35;;;;;;;10.37;6.07;;;;;;;8.88;49.73;100467.16;5005363;28;20211;-63
2023/04/27 05:24:03;;;;;;;8.90;5.83;;;;;;;9.24;48.29;100466.34;5009484;28;20266;-61
2023/04/27 05:26:33;;;;;;;12.50;6.07;;;;;;;9.97;47.68;100473.16;5003859;28;20214;-61
2023/04/27 05:29:01;;;;;;;10.40;5.87;;;;;;;10.97;45.45;100462.44;5009093;28;20207;-62
2023/04/27 05:31:29;;;;;;;14.57;7.30;;;;;;;12.09;44.27;100462.38;5003360;28;20208;-66
2023/04/27 05:33:57;;;;;;;9.97;6.27;;;;;;;13.22;40.53;100463.44;5003704;28;20207;-65
2023/04/27 05:36:25;;;;;;;11.23;6.20;;;;;;;13.90;38.61;100465.75;5009760;28;20734;-63
2023/04/27 05:38:53;;;;;;;8.73;6.70;;;;;;;14.21;37.61;100467.75;5002130;28;20888;-63
2023/04/27 05:41:22;;;;;;;10.77;6.87;;;;;;;14.54;36.69;100471.41;5003620;28;20741;-66
2023/04/27 05:43:52;;;;;;;11.13;6.43;;;;;;;14.73;36.24;100464.13;5006000;28;20207;-65
2023/04/27 05:46:20;;;;;;;13.87;5.90;;;;;;;14.77;35.78;100455.38;5004371;28;20265;-66
2023/04/27 05:48:48;;;;;;;10.43;7.00;;;;;;;14.90;35.09;100463.72;5005644;28;20579;-69
2023/04/27 05:51:16;;;;;;;11.67;6.33;;;;;;;15.11;34.48;100468.44;5010347;28;20222;-65
2023/04/27 05:53:45;;;;;;;8.03;5.80;;;;;;;15.54;34.40;100459.63;5008304;28;20215;-66
2023/04/27 05:56:13;;;;;;;12.03;6.57;;;;;;;16.60;33.00;100461.91;5010150;28;20192;-66
2023/04/27 05:58:41;;;;;;;8.93;6.50;;;;;;;17.66;31.35;100464.66;5006155;28;20196;-67
2023/04/27 06:01:11;;;;;;;9.23;6.37;;;;;;;18.53;29.46;100468.53;5004680;28;20572;-63
2023/04/27 06:03:39;;;;;;;9.45;6.47;;;;;;;18.95;28.45;100459.97;5010437;28;20655;-66
2023/04/27 06:06:07;;;;;;;10.35;6.25;;;;;;;19.53;27.98;100468.91;5005874;28;20578;-67
2023/04/27 06:08:36;;;;;;;11.98;6.25;;;;;;;20.27;27.09;100463.97;5002304;28;20660;-68
2023/04/27 06:11:04;;;;;;;10.00;6.68;;;;;;;20.51;25.55;100463.84;5010808;28;20215;-66
2023/04/27 06:13:32;;;;;;;11.05;6.40;;;;;;;20.64;26.02;100471.97;5011206;28;20616;-64
2023/04/27 06:16:01;;;;;;;10.48;6.75;;;;;;;21.29;25.39;100473.22;5010331;28;20746;-66
2023/04/27 06:18:31;;;;;;;10.68;6.38;;;;;;;22.07;24.39;100464.00;5011717;28;20626;-67
2023/04/27 06:21:00;;;;;;;10.80;6.82;;;;;;;22.51;23.63;100460.81;5011546;28;20215;-66
2023/04/27 06:23:29;;;;;;;10.10;6.43;;;;;;;23.01;22.84;100464.22;5009574;28;20249;-64
2023/04/27 06:25:57;;;;;;;9.02;6.97;;;;;;;23.36;22.45;100463.06;5008550;28;20588;-65
2023/04/27 06:28:26;;;;;;;9.90;6.68;;;;;;;23.70;21.93;100468.16;5004826;28;20609;-65
2023/04/27 06:30:54;;;;;;;13.73;7.13;;;;;;;23.77;21.31;100465.06;5005977;28;20203;-65
2023/04/27 06:33:22;;;;;;;10.73;6.60;;;;;;;23.60;21.75;100463.41;5008309;28;20199;-65
2023/04/27 06:35:51;;;;;;;10.02;6.85;;;;;;;23.99;21.67;100464.59;5000206;28;20646;-65
2023/04/27 06:38:19;;;;;;;8.48;6.15;;;;;;;24.46;21.29;100463.50;4999875;28;21949;-65
2023/04/27 06:40:51;;;;;;;10.35;6.20;;;;;;;24.96;20.15;100467.31;5007754;28;20215;-66
2023/04/27 06:43:19;;;;;;;9.48;6.45;;;;;;;25.38;19.58;100462.03;5008372;28;20199;-68
2023/04/27 06:45:47;;;;;;;17.10;7.13;;;;;;;25.59;19.73;100465.00;5008290;28;20547;-64
2023/04/27 06:48:15;;;;;;;10.93;5.93;;;;;;;25.68;19.19;100461.75;5006093;28;20572;-65
2023/04/27 06:50:43;;;;;;;10.07;6.55;;;;;;;25.84;19.71;100470.31;5002410;28;20651;-68
2023/04/27 06:53:13;;;;;;;7.60;5.45;;;;;;;25.90;18.77;100475.19;5007705;28;20273;-65
2023/04/27 06:55:41;;;;;;;12.10;6.38;;;;;;;25.36;18.99;100475.28;5008298;28;20682;-65
2023/04/27 06:58:13;;;;;;;8.18;6.22;;;;;;;24.96;19.95;100472.59;5007707;28;20604;-67
2023/04/27 07:00:41;;;;;;;11.35;7.22;;;;;;;25.01;20.15;100475.78;4999299;28;20265;-66
2023/04/27 07:03:09;;;;;;;9.85;6.57;;;;;;;25.08;19.80;100475.41;5002738;28;20923;-66
2023/04/27 07:05:37;;;;;;;8.68;6.22;;;;;;;24.99;19.72;100475.03;5004238;28;20658;-67
2023/04/27 07:08:05;;;;;;;8.73;7.00;;;;;;;24.92;19.87;100483.44;5003488;28;20227;-65
2023/04/27 07:10:37;;;;;;;8.55;5.50;;;;;;;24.58;20.28;100482.97;4997950;28;20293;-66
2023/04/27 07:13:05;;;;;;;11.90;6.10;;;;;;;24.54;20.23;100484.94;4999225;28;20211;-64
2023/04/27 07:15:36;;;;;;;7.97;5.85;;;;;;;24.23;21.10;100482.47;5001304;28;20203;-66
2023/04/27 07:18:04;;;;;;;10.98;6.40;;;;;;;24.23;20.69;100478.09;5002423;28;21823;-65
2023/04/27 07:20:32;;;;;;;9.73;4.97;;;;;;;24.38;20.63;100476.28;5005874;28;20608;-65
2023/04/27 07:23:00;;;;;;;5.43;4.80;;;;;;;24.40;20.19;100477.06;4997260;28;20226;-66
2023/04/27 07:25:28;;;;;;;7.72;4.55;;;;;;;24.67;20.16;100486.78;5004171;28;20261;-68
2023/04/27 07:27:58;;;;;;;10.60;6.00;;;;;;;24.74;19.51;100477.56;5011683;28;20219;-67
2023/04/27 07:30:29;;;;;;;8.05;5.32;;;;;;;24.67;19.81;100482.41;5005419;28;20214;-64
2023/04/27 07:32:59;;;;;;;10.77;5.13;;;;;;;24.75;19.83;100480.13;5008135;28;20294;-63
2023/04/27 07:35:27;;;;;;;8.15;4.60;;;;;;;24.77;19.89;100482.63;5004784;28;20230;-65
2023/04/27 07:37:56;;;;;;;7.03;4.03;;;;;;;24.74;19.37;100488.97;5013953;28;20206;-65
2023/04/27 07:40:24;;;;;;;8.73;4.03;;;;;;;24.90;18.81;100485.34;5012348;28;20764;-64
2023/04/27 07:42:52;;;;;;;8.38;4.50;;;;;;;24.45;18.88;100485.53;5010430;28;20287;-64
2023/04/27 07:45:21;;;;;;;5.78;4.10;;;;;;;23.65;20.16;100485.97;5010643;28;20211;-64
2023/04/27 07:47:50;;;;;;;7.50;4.22;;;;;;;23.40;20.49;100487.38;5013977;28;20658;-63
2023/04/27 07:50:23;;;;;;;6.78;4.47;;;;;;;23.44;20.59;100483.66;5012140;28;20711;-64
2023/04/27 07:52:51;;;;;;;7.30;4.43;;;;;;;23.48;20.13;100487.78;5009003;28;20646;-65
2023/04/27 07:55:20;;;;;;;7.05;4.05;;;;;;;23.04;19.90;100495.59;5009954;28;20203;-60
2023/04/27 07:57:48;;;;;;;5.03;4.03;;;;;;;22.35;20.78;100497.56;5009327;28;20800;-60
2023/04/27 08:00:16;;;;;;;6.70;3.67;;;;;;;22.32;20.87;100497.72;5013583;28;20662;-62
2023/04/27 08:02:46;;;;;;;7.20;3.72;;;;;;;22.54;20.85;100505.31;5008704;28;20678;-61
2023/04/27 08:05:14;;;;;;;5.35;4.05;;;;;;;22.16;21.44;100497.66;5006494;28;20207;-61
2023/04/27 08:07:43;;;;;;;6.90;4.97;;;;;;;21.56;22.19;100507.72;5002346;28;20210;-63
2023/04/27 08:10:12;;;;;;;6.80;4.80;;;;;;;21.71;22.45;100506.09;5004130;28;20571;-66
2023/04/27 08:12:40;;;;;;;7.80;4.85;;;;;;;21.93;22.41;100509.31;5012030;28;20654;-67
2023/04/27 08:15:10;;;;;;;7.32;4.60;;;;;;;21.73;22.55;100504.25;5008199;28;20669;-66
2023/04/27 08:17:39;;;;;;;6.10;4.50;;;;;;;21.16;23.04;100508.78;5012284;28;20203;-68
2023/04/27 08:20:11;;;;;;;7.25;4.40;;;;;;;21.16;24.09;100512.25;5011749;28;20207;-68
2023/04/27 08:22:39;;;;;;;5.63;4.68;;;;;;;21.23;23.34;100495.31;5012265;28;20226;-68
2023/04/27 08:25:08;;;;;;;6.93;5.50;;;;;;;21.40;24.31;100504.16;5010624;28;20301;-67
2023/04/27 08:27:38;;;;;;;9.80;5.03;;;;;;;21.73;23.79;100495.56;5008440;28;20424;-66
2023/04/27 08:30:08;;;;;;;10.18;5.07;;;;;;;21.87;23.71;100493.94;5013702;28;20232;-69
2023/04/27 08:32:36;;;;;;;6.55;4.53;;;;;;;21.19;23.37;100496.38;5008490;28;20246;-66
2023/04/27 08:35:04;;;;;;;7.40;4.70;;;;;;;20.62;24.03;100499.97;5009992;28;20203;-69
2023/04/27 08:37:33;;;;;;;6.43;4.78;;;;;;;19.73;24.31;100496.84;5007522;28;20627;-68
2023/04/27 08:40:04;;;;;;;6.10;4.70;;;;;;;18.43;26.06;100501.09;5012642;28;20253;-68
2023/04/27 08:42:32;;;;;;;5.97;3.63;;;;;;;17.69;27.48;100506.25;5013389;28;20659;-67
2023/04/27 08:45:00;;;;;;;8.35;4.60;;;;;;;16.70;28.91;100505.00;5010722;28;20605;-67
2023/04/27 08:47:29;;;;;;;5.50;4.38;;;;;;;16.00;30.83;100499.16;5010795;28;20211;-69
2023/04/27 08:50:11;;;;;;;8.13;4.80;;;;;;;15.57;32.38;100492.44;5010054;28;20211;-67
2023/04/27 08:52:40;;;;;;;7.07;4.75;;;;;;;15.33;32.25;100499.94;5013010;28;20199;-67
2023/04/27 08:55:09;;;;;;;5.65;4.20;;;;;;;15.23;31.98;100501.88;5010383;28;20250;-67
2023/04/27 08:57:37;;;;;;;6.27;4.13;;;;;;;15.00;32.67;100498.13;5010697;28;20250;-68
2023/04/27 09:00:12;;;;;;;9.83;4.37;;;;;;;14.51;33.34;100492.25;5009713;28;20258;-68
2023/04/27 09:02:46;;;;;;;8.13;4.83;;;;;;;13.92;34.57;100509.78;5005129;28;20216;-66
2023/04/27 09:05:18;;;;;;;6.70;3.83;;;;;;;13.53;35.42;100506.97;5007322;28;20209;-68
2023/04/27 09:08:04;;;;;;;6.03;3.43;;;;;;;13.09;36.22;100505.88;5005273;28;20290;-66
2023/04/27 09:10:44;;;;;;;6.13;4.03;;;;;;;12.77;36.82;100511.50;5000895;28;20265;-66
2023/04/27 09:13:12;;;;;;;7.67;4.10;;;;;;;12.47;37.66;100516.16;5008177;28;20628;-66
2023/04/27 09:15:44;;;;;;;9.60;3.50;;;;;;;12.29;38.17;100511.22;5005907;28;20581;-66
2023/04/27 09:18:17;;;;;;;4.90;3.60;;;;;;;12.07;38.20;100520.91;5010978;28;20568;-66
2023/04/27 09:20:45;;;;;;;5.20;3.50;;;;;;;11.82;38.86;100520.28;5008568;28;20203;-68
2023/04/27 09:23:27;;;;;;;6.10;3.83;;;;;;;11.62;40.04;100517.84;5011535;28;20234;-65
2023/04/27 09:25:55;;;;;;;6.03;3.33;;;;;;;11.46;40.38;100531.75;5009343;28;20579;-66
2023/04/27 09:28:26;;;;;;;5.80;3.80;;;;;;;11.30;41.84;100531.00;5011013;28;20208;-66
2023/04/27 09:30:55;;;;;;;5.47;3.30;;;;;;;11.24;44.00;100529.31;5006720;28;20330;-67
2023/04/27 09:33:24;;;;;;;9.03;4.20;;;;;;;11.12;44.60;100538.00;5010267;28;20219;-65
2023/04/27 09:35:53;;;;;;;5.73;3.87;;;;;;;10.98;44.16;100537.22;5005880;28;20704;-66
2023/04/27 09:38:22;;;;;;;6.27;3.67;;;;;;;10.98;44.24;100528.63;5011282;28;20541;-66
2023/04/27 09:40:53;;;;;;;8.43;3.67;;;;;;;10.97;44.78;100532.94;5009551;28;20258;-70
2023/04/27 09:43:22;;;;;;;8.37;4.37;;;;;;;11.04;45.00;100529.44;5010936;28;20344;-68
2023/04/27 09:45:50;;;;;;;9.43;4.50;;;;;;;11.10;45.03;100523.41;5002591;28;20295;-67
2023/04/27 09:48:18;;;;;;;6.53;3.87;;;;;;;11.18;45.24;100525.91;5008578;28;20326;-70
2023/04/27 09:50:46;;;;;;;6.03;3.63;;;;;;;11.30;44.51;100531.00;5010343;28;20810;-67
2023/04/27 09:53:17;;;;;;;6.57;3.70;;;;;;;11.32;43.37;100524.13;5007779;28;20586;-65
2023/04/27 09:55:54;;;;;;;7.20;3.80;;;;;;;11.31;43.08;100523.25;4999977;28;20210;-65
2023/04/27 09:58:48;;;;;;;5.30;3.30;;;;;;;11.23;42.91;100524.16;5007534;28;20336;-65
2023/04/27 10:01:26;;;;;;;4.73;3.00;;;;;;;11.12;42.22;100532.84;5002192;28;20231;-66
2023/04/27 10:04:11;;;;;;;6.33;3.10;;;;;;;10.97;41.85;100521.75;5002847;28;20218;-65
2023/04/27 10:07:00;;;;;;;5.13;2.83;;;;;;;10.82;41.93;100525.25;5001499;28;20231;-65
2023/04/27 10:09:36;;;;;;;4.53;2.70;;;;;;;10.80;41.42;100532.16;5002094;28;20211;-66
2023/04/27 10:12:18;;;;;;;2.80;2.43;;;;;;;10.83;40.77;100529.56;5005862;28;20202;-65
2023/04/27 10:14:52;;;;;;;3.83;2.23;;;;;;;10.86;40.23;100529.53;5000883;28;20212;-65
2023/04/27 10:17:25;;;;;;;3.23;2.27;;;;;;;10.91;40.15;100530.38;5004222;28;20604;-64
2023/04/27 10:19:55;;;;;;;4.40;2.10;;;;;;;10.99;40.80;100530.34;5004577;28;20229;-65
2023/04/27 10:22:38;;;;;;;2.70;1.80;;;;;;;11.00;40.20;100525.16;5010809;28;20315;-65
2023/04/27 10:25:15;;;;;;;4.23;2.20;;;;;;;10.99;39.86;100536.34;5010242;28;20694;-69
2023/04/27 10:27:43;;;;;;;4.97;1.90;;;;;;;10.98;39.86;100526.91;5007603;28;20686;-66
2023/04/27 10:30:13;;;;;;;14.60;2.67;;;;;;;10.97;39.89;100527.78;5005065;28;20200;-66
2023/04/27 10:32:51;;;;;;;4.20;1.77;;;;;;;10.94;39.30;100527.78;5007967;28;20238;-65
2023/04/27 10:35:21;;;;;;;2.70;1.60;;;;;;;10.87;39.09;100531.25;5009872;28;20269;-65
2023/04/27 10:37:50;;;;;;;2.20;2.00;;;;;;;10.84;39.57;100526.13;5003503;28;20203;-68
2023/04/27 10:40:18;;;;;;;4.17;1.97;;;;;;;10.90;39.36;100526.09;5008741;28;20713;-70
2023/04/27 10:42:48;;;;;;;5.10;2.17;;;;;;;10.81;39.87;100528.69;5011436;28;20685;-65
2023/04/27 10:45:28;;;;;;;2.60;1.97;;;;;;;10.76;40.15;100535.63;5011120;28;20574;-66
2023/04/27 10:48:00;;;;;;;5.87;2.20;;;;;;;10.83;39.69;100524.41;5009211;28;20203;-66
2023/04/27 10:50:28;;;;;;;5.13;2.20;;;;;;;10.98;40.13;100529.50;5007895;28;20211;-65
2023/04/27 10:53:00;;;;;;;3.43;2.00;;;;;;;11.17;39.88;100529.38;5009397;28;20680;-66
2023/04/27 10:55:28;;;;;;;5.23;2.77;;;;;;;11.55;39.66;100527.38;5001988;28;20246;-64
2023/04/27 10:57:57;;;;;;;3.17;2.17;;;;;;;12.01;39.19;100529.59;5009842;28;20667;-65
2023/04/27 11:00:29;;;;;;;4.23;2.70;;;;;;;12.46;39.23;100524.81;5009610;28;20297;-67
2023/04/27 11:03:09;;;;;;;5.67;2.67;;;;;;;12.66;38.69;100531.47;5011950;28;20215;-70
2023/04/27 11:05:37;;;;;;;4.57;3.20;;;;;;;12.63;38.62;100531.50;5002800;28;20210;-66
2023/04/27 11:08:07;;;;;;;4.67;2.33;;;;;;;12.37;38.48;100532.69;4997629;28;20281;-65
2023/04/27 11:10:35;;;;;;;6.03;3.13;;;;;;;12.07;39.21;100536.41;5007690;28;20238;-64
2023/04/27 11:13:08;;;;;;;4.30;2.27;;;;;;;11.88;40.00;100540.06;5007844;28;20273;-63
2023/04/27 11:15:45;;;;;;;4.60;2.53;;;;;;;11.65;39.03;100542.78;5004027;28;20213;-64
2023/04/27 11:18:14;;;;;;;4.50;2.40;;;;;;;11.39;39.21;100541.25;5004570;28;20207;-64
2023/04/27 11:20:43;;;;;;;4.53;2.50;;;;;;;11.10;39.02;100539.72;5007199;28;20289;-65
2023/04/27 11:23:11;;;;;;;5.37;2.20;;;;;;;10.95;38.90;100552.69;5004663;28;20250;-67
2023/04/27 11:25:40;;;;;;;4.17;2.00;;;;;;;10.82;39.86;100554.47;5006287;28;20615;-65
2023/04/27 11:28:17;;;;;;;4.00;1.83;;;;;;;10.73;39.57;100543.34;5003358;28;20203;-65
2023/04/27 11:30:48;;;;;;;3.70;1.90;;;;;;;10.71;38.70;100550.22;5002005;28;20635;-64
2023/04/27 11:33:16;;;;;;;5.30;2.20;;;;;;;10.66;38.49;100554.56;5001316;28;20247;-65
2023/04/27 11:35:43;;;;;;;4.83;2.30;;;;;;;10.60;38.11;100548.56;5008240;28;20199;-66